METAR Data
IDs: Format: Raw Decoded Include TAF

Data at: 1229 UTC 16 Jul 2019

KRTN 161153Z AUTO 05005KT 10SM CLR 14/11 A3018 RMK AO2 SLP132 70005 T01440111 10217 20144 53001
KRTN 161053Z AUTO 12003KT 10SM CLR 15/12 A3017 RMK AO2 SLP134 T01500122
KRTN 160953Z AUTO 04006KT 10SM CLR 17/12 A3016 RMK AO2 SLP133 T01670117
KRTN 160853Z AUTO 00000KT 10SM CLR 18/12 A3018 RMK AO2 SLP112 T01780117 58008
KRTN 160753Z AUTO 00000KT 10SM CLR 17/12 A3019 RMK AO2 SLP118 T01720122
KRTN 160653Z AUTO 00000KT 10SM CLR 18/12 A3020 RMK AO2 LTG DSNT SW SLP120 T01780122 403330133
KRTN 160553Z AUTO 34011KT 10SM CLR 19/11 A3021 RMK AO2 SLP122 60000 T01940111 10267 20178 51013
KRTN 160453Z AUTO 36007KT 10SM FEW120 18/13 A3020 RMK AO2 SLP130 T01780133
KRTN 160353Z AUTO 06008KT 10SM SCT120 18/14 A3018 RMK AO2 RAB20E34 SLP127 P0000 T01830139
KRTN 160253Z AUTO 30004KT 10SM FEW110 21/13 A3016 RMK AO2 SLP120 T02060133 55002
KRTN 160153Z AUTO 25003KT 10SM CLR 24/13 A3015 RMK AO2 SLP116 T02390133
KRTN 160053Z AUTO 11003KT 10SM CLR 26/14 A3015 RMK AO2 LTG DSNT NE SLP121 T02560139
KRTN 152353Z AUTO 04017KT 10SM SCT100 25/15 A3017 RMK AO2 LTG DSNT NE SLP130 60005 T02500150 10333 20194 58001
KRTN 152331Z AUTO 08004KT 10SM VCTS FEW100 24/13 A3017 RMK AO2 LTG DSNT E AND W T02390133
KRTN 152306Z AUTO 18003KT 10SM FEW055 BKN110 23/13 A3016 RMK AO2 LTG DSNT ALQDS T02330133
KRTN 152253Z AUTO 02003KT 10SM VCTS FEW055 BKN110 22/14 A3017 RMK AO2 LTG DSNT ALQDS RAE38 TSE03B26E44 SLP134 P0000 T02170139
KRTN 152250Z AUTO 01005KT 10SM VCTS FEW055 SCT090 OVC110 22/14 A3017 RMK AO2 LTG DSNT ALQDS RAE38 TSE03B26E44 P0000
KRTN 152232Z AUTO 27005G17KT 10SM -TSRA SCT055 SCT075 BKN095 21/13 A3019 RMK AO2 LTG DSNT ALQDS TSE03B26 P0000 T02110128
KRTN 152209Z AUTO 26013KT 10SM VCTS -RA BKN110 19/14 A3017 RMK AO2 LTG DSNT ALQDS TSE03 P0000 T01940139
KRTN 152153Z AUTO 24015G18KT 10SM -TSRA FEW070 OVC110 20/14 A3017 RMK AO2 PK WND 26030/2120 WSHFT 2115 LTG DSNT SE RAB01 TSB03 SLP137 P0005 T02000139
KRTN 152135Z AUTO 24012G19KT 9SM -TSRA BKN100 BKN120 21/14 A3016 RMK AO2 PK WND 26030/2120 WSHFT 2115 LTG DSNT NW RAB01 TSB03 P0005 T02060139
KRTN 152109Z AUTO VRB03KT 4SM TSRA OVC100 27/11 A3015 RMK AO2 LTG DSNT W AND NW RAB01 TSB03 P0001 T02670111
KRTN 152053Z AUTO 09007G15KT 10SM VCTS BKN090 OVC110 31/08 A3014 RMK AO2 LTG DSNT W AND NW SLP102 T03060083 56016
KRTN 151953Z AUTO 16004KT 10SM SCT090 32/09 A3016 RMK AO2 SLP105 T03170089
KRTN 151853Z AUTO VRB04KT 10SM CLR 31/09 A3018 RMK AO2 SLP116 T03060089
KRTN 151753Z AUTO VRB03KT 10SM CLR 29/11 A3020 RMK AO2 SLP122 T02940111 10294 20133 58009
KRTN 151653Z AUTO 15006KT 10SM CLR 26/11 A3021 RMK AO2 SLP131 T02610111
KRTN 151553Z AUTO 17007KT 10SM CLR 23/12 A3023 RMK AO2 SLP135 T02330117
KRTN 151453Z AUTO 17007KT 10SM CLR 22/12 A3023 RMK AO2 SLP144 T02170122 53002
KRTN 151353Z AUTO 05004KT 10SM CLR 19/11 A3023 RMK AO2 SLP139 T01890106
KRTN 151253Z AUTO 07006KT 10SM CLR 14/10 A3022 RMK AO2 SLP142 T01440100
KRTN 151153Z AUTO 04006KT 10SM CLR 13/10 A3022 RMK AO2 SLP147 70003 T01330100 10178 20133 56012
KRTN 151053Z AUTO 05007KT 10SM CLR 14/11 A3023 RMK AO2 SLP146 T01440111
KRTN 150953Z AUTO 06008KT 10SM CLR 15/12 A3024 RMK AO2 SLP147 T01500122
KRTN 150853Z AUTO 01005KT 10SM CLR 17/11 A3027 RMK AO2 SLP148 T01720106 58018
KRTN 150753Z AUTO 25011KT 10SM CLR 17/12 A3029 RMK AO2 SLP155 T01670117
KRTN 150653Z AUTO 20007KT 10SM SCT100 17/14 A3032 RMK AO2 SLP166 T01670139 403110122
KRTN 150553Z AUTO 25006KT 10SM SCT075 BKN090 OVC110 18/13 A3033 RMK AO2 LTG DSNT S TSE03 SLP171 60003 T01780128 10283 20178 53022
KRTN 150538Z AUTO 21017G20KT 10SM OVC075 19/14 A3034 RMK AO2 LTG DSNT E AND S TSE03 T01890139
KRTN 150519Z AUTO 12004KT 10SM VCTS BKN075 19/13 A3032 RMK AO2 LTG DSNT S TSE03 T01890133
KRTN 150509Z AUTO 08003KT 10SM FEW075 SCT110 19/13 A3031 RMK AO2 LTG DSNT E-S TSE03 T01940133
KRTN 150453Z AUTO 07004KT 10SM TS BKN110 19/13 A3030 RMK AO2 LTG DSNT E AND S RAB00E31 TSE19B48 SLP159 P0003 T01890133
KRTN 150425Z AUTO 12008KT 10SM -RA SCT080 OVC100 19/13 A3029 RMK AO2 LTG DSNT SE-SW RAB00 TSE19 P0003 T01940133
KRTN 150353Z AUTO 35005KT 10SM TS OVC085 23/09 A3028 RMK AO2 TSB49 SLP148 T02330089
KRTN 150253Z AUTO 34006KT 10SM CLR 22/09 A3025 RMK AO2 SLP149 T02170089 53008
KRTN 150153Z AUTO 17004KT 10SM FEW120 25/09 A3024 RMK AO2 SLP144 T02500094
KRTN 150053Z AUTO 00000KT 10SM CLR 28/08 A3022 RMK AO2 SLP139 T02780078